sensor_id;sensor_type;location;lat;lon;timestamp;P1;durP1;ratioP1;P2;durP2;ratioP2
4311;SDS011;2169;49.086;9.284;2023-07-22T00:00:00;1.67;;;1.53;;
4311;SDS011;2169;49.086;9.284;2023-07-22T00:02:30;1.50;;;1.40;;
4311;SDS011;2169;49.086;9.284;2023-07-22T00:04:58;2.73;;;2.47;;
4311;SDS011;2169;49.086;9.284;2023-07-22T00:07:25;1.63;;;1.53;;
4311;SDS011;2169;49.086;9.284;2023-07-22T00:09:52;2.27;;;1.33;;
4311;SDS011;2169;49.086;9.284;2023-07-22T00:12:19;2.70;;;2.03;;
4311;SDS011;2169;49.086;9.284;2023-07-22T00:14:50;2.40;;;2.20;;
4311;SDS011;2169;49.086;9.284;2023-07-22T00:17:17;5.90;;;2.67;;
4311;SDS011;2169;49.086;9.284;2023-07-22T00:19:45;1.80;;;1.23;;
4311;SDS011;2169;49.086;9.284;2023-07-22T00:22:14;2.83;;;1.63;;
4311;SDS011;2169;49.086;9.284;2023-07-22T00:24:41;2.50;;;1.80;;
4311;SDS011;2169;49.086;9.284;2023-07-22T00:27:08;2.10;;;2.00;;
4311;SDS011;2169;49.086;9.284;2023-07-22T00:29:35;2.83;;;1.83;;
4311;SDS011;2169;49.086;9.284;2023-07-22T00:32:02;1.30;;;1.20;;
4311;SDS011;2169;49.086;9.284;2023-07-22T00:34:32;2.23;;;2.10;;
4311;SDS011;2169;49.086;9.284;2023-07-22T00:36:58;5.27;;;1.40;;
4311;SDS011;2169;49.086;9.284;2023-07-22T00:39:27;11.13;;;1.83;;
4311;SDS011;2169;49.086;9.284;2023-07-22T00:41:53;3.43;;;2.27;;
4311;SDS011;2169;49.086;9.284;2023-07-22T00:44:20;2.20;;;2.10;;
4311;SDS011;2169;49.086;9.284;2023-07-22T00:46:47;4.87;;;2.37;;
4311;SDS011;2169;49.086;9.284;2023-07-22T00:49:14;3.07;;;1.90;;
4311;SDS011;2169;49.086;9.284;2023-07-22T00:51:42;3.90;;;1.77;;
4311;SDS011;2169;49.086;9.284;2023-07-22T00:54:09;2.37;;;2.17;;
4311;SDS011;2169;49.086;9.284;2023-07-22T00:56:37;1.97;;;1.63;;
4311;SDS011;2169;49.086;9.284;2023-07-22T00:59:06;4.70;;;2.60;;
4311;SDS011;2169;49.086;9.284;2023-07-22T01:01:33;3.93;;;2.53;;
4311;SDS011;2169;49.086;9.284;2023-07-22T01:04:00;2.50;;;2.30;;
4311;SDS011;2169;49.086;9.284;2023-07-22T01:06:29;4.80;;;2.73;;
4311;SDS011;2169;49.086;9.284;2023-07-22T01:08:56;2.17;;;1.97;;
4311;SDS011;2169;49.086;9.284;2023-07-22T01:11:23;3.43;;;2.53;;
4311;SDS011;2169;49.086;9.284;2023-07-22T01:13:52;7.40;;;2.93;;
4311;SDS011;2169;49.086;9.284;2023-07-22T01:16:23;5.53;;;2.07;;
4311;SDS011;2169;49.086;9.284;2023-07-22T01:18:51;2.20;;;2.07;;
4311;SDS011;2169;49.086;9.284;2023-07-22T01:21:19;2.13;;;2.03;;
4311;SDS011;2169;49.086;9.284;2023-07-22T01:23:47;1.27;;;1.17;;
4311;SDS011;2169;49.086;9.284;2023-07-22T01:26:14;4.33;;;1.57;;
4311;SDS011;2169;49.086;9.284;2023-07-22T01:28:41;2.80;;;2.10;;
4311;SDS011;2169;49.086;9.284;2023-07-22T01:31:08;11.43;;;2.70;;
4311;SDS011;2169;49.086;9.284;2023-07-22T01:33:34;4.67;;;1.77;;
4311;SDS011;2169;49.086;9.284;2023-07-22T01:36:03;2.30;;;1.83;;
4311;SDS011;2169;49.086;9.284;2023-07-22T01:38:30;2.80;;;2.60;;
4311;SDS011;2169;49.086;9.284;2023-07-22T01:40:58;6.33;;;2.27;;
4311;SDS011;2169;49.086;9.284;2023-07-22T01:43:25;2.07;;;1.97;;
4311;SDS011;2169;49.086;9.284;2023-07-22T01:45:52;2.47;;;1.33;;
4311;SDS011;2169;49.086;9.284;2023-07-22T01:48:19;1.97;;;1.83;;
4311;SDS011;2169;49.086;9.284;2023-07-22T01:50:47;3.20;;;1.77;;
4311;SDS011;2169;49.086;9.284;2023-07-22T01:53:14;2.10;;;2.00;;
4311;SDS011;2169;49.086;9.284;2023-07-22T01:55:40;2.60;;;2.40;;
4311;SDS011;2169;49.086;9.284;2023-07-22T01:58:08;3.47;;;1.77;;
4311;SDS011;2169;49.086;9.284;2023-07-22T02:00:35;4.10;;;2.77;;
4311;SDS011;2169;49.086;9.284;2023-07-22T02:03:02;2.97;;;2.10;;
4311;SDS011;2169;49.086;9.284;2023-07-22T02:05:29;2.20;;;2.10;;
4311;SDS011;2169;49.086;9.284;2023-07-22T02:07:56;1.63;;;1.37;;
4311;SDS011;2169;49.086;9.284;2023-07-22T02:10:23;2.27;;;2.07;;
4311;SDS011;2169;49.086;9.284;2023-07-22T02:12:50;2.83;;;1.63;;
4311;SDS011;2169;49.086;9.284;2023-07-22T02:15:18;6.33;;;1.83;;
4311;SDS011;2169;49.086;9.284;2023-07-22T02:17:47;2.20;;;1.63;;
4311;SDS011;2169;49.086;9.284;2023-07-22T02:20:14;2.50;;;2.30;;
4311;SDS011;2169;49.086;9.284;2023-07-22T02:22:41;7.30;;;2.30;;
4311;SDS011;2169;49.086;9.284;2023-07-22T02:25:08;3.07;;;2.20;;
4311;SDS011;2169;49.086;9.284;2023-07-22T02:27:35;3.47;;;1.53;;
4311;SDS011;2169;49.086;9.284;2023-07-22T02:30:03;2.23;;;2.03;;
4311;SDS011;2169;49.086;9.284;2023-07-22T02:32:32;2.17;;;2.03;;
4311;SDS011;2169;49.086;9.284;2023-07-22T02:34:59;4.50;;;1.87;;
4311;SDS011;2169;49.086;9.284;2023-07-22T02:37:26;4.00;;;1.97;;
4311;SDS011;2169;49.086;9.284;2023-07-22T02:39:54;1.60;;;1.43;;
4311;SDS011;2169;49.086;9.284;2023-07-22T02:42:21;4.00;;;1.77;;
4311;SDS011;2169;49.086;9.284;2023-07-22T02:44:47;2.33;;;2.13;;
4311;SDS011;2169;49.086;9.284;2023-07-22T02:47:14;1.57;;;1.47;;
4311;SDS011;2169;49.086;9.284;2023-07-22T02:49:42;1.97;;;1.87;;
4311;SDS011;2169;49.086;9.284;2023-07-22T02:52:10;4.43;;;2.10;;
4311;SDS011;2169;49.086;9.284;2023-07-22T02:54:38;5.27;;;2.00;;
4311;SDS011;2169;49.086;9.284;2023-07-22T02:57:06;3.47;;;2.30;;
4311;SDS011;2169;49.086;9.284;2023-07-22T02:59:33;5.50;;;2.73;;
4311;SDS011;2169;49.086;9.284;2023-07-22T03:01:59;1.90;;;1.80;;
4311;SDS011;2169;49.086;9.284;2023-07-22T03:04:26;2.97;;;2.33;;
4311;SDS011;2169;49.086;9.284;2023-07-22T03:06:54;2.40;;;2.00;;
4311;SDS011;2169;49.086;9.284;2023-07-22T03:09:21;2.50;;;1.83;;
4311;SDS011;2169;49.086;9.284;2023-07-22T03:11:48;9.97;;;2.00;;
4311;SDS011;2169;49.086;9.284;2023-07-22T03:14:15;19.87;;;2.80;;
4311;SDS011;2169;49.086;9.284;2023-07-22T03:16:42;2.57;;;1.90;;
4311;SDS011;2169;49.086;9.284;2023-07-22T03:19:09;3.07;;;1.50;;
4311;SDS011;2169;49.086;9.284;2023-07-22T03:21:36;12.53;;;2.70;;
4311;SDS011;2169;49.086;9.284;2023-07-22T03:24:04;2.70;;;2.50;;
4311;SDS011;2169;49.086;9.284;2023-07-22T03:26:31;1.90;;;1.70;;
4311;SDS011;2169;49.086;9.284;2023-07-22T03:28:58;3.30;;;1.47;;
4311;SDS011;2169;49.086;9.284;2023-07-22T03:31:25;12.67;;;2.10;;
4311;SDS011;2169;49.086;9.284;2023-07-22T03:33:52;4.70;;;2.10;;
4311;SDS011;2169;49.086;9.284;2023-07-22T03:36:18;2.00;;;1.90;;
4311;SDS011;2169;49.086;9.284;2023-07-22T03:38:45;2.23;;;2.13;;
4311;SDS011;2169;49.086;9.284;2023-07-22T03:41:13;1.50;;;1.40;;
4311;SDS011;2169;49.086;9.284;2023-07-22T03:43:40;2.37;;;1.50;;
4311;SDS011;2169;49.086;9.284;2023-07-22T03:46:08;5.13;;;2.77;;
4311;SDS011;2169;49.086;9.284;2023-07-22T03:48:35;4.63;;;2.47;;
4311;SDS011;2169;49.086;9.284;2023-07-22T03:51:01;2.57;;;2.47;;
4311;SDS011;2169;49.086;9.284;2023-07-22T03:53:28;7.50;;;1.80;;
4311;SDS011;2169;49.086;9.284;2023-07-22T03:55:55;2.20;;;1.97;;
4311;SDS011;2169;49.086;9.284;2023-07-22T03:58:23;2.93;;;1.53;;
4311;SDS011;2169;49.086;9.284;2023-07-22T04:00:50;9.33;;;2.03;;
4311;SDS011;2169;49.086;9.284;2023-07-22T04:03:17;1.80;;;1.70;;
4311;SDS011;2169;49.086;9.284;2023-07-22T04:05:43;2.50;;;1.97;;
4311;SDS011;2169;49.086;9.284;2023-07-22T04:08:10;2.87;;;2.67;;
4311;SDS011;2169;49.086;9.284;2023-07-22T04:10:37;3.50;;;3.17;;
4311;SDS011;2169;49.086;9.284;2023-07-22T04:13:04;1.90;;;1.80;;
4311;SDS011;2169;49.086;9.284;2023-07-22T04:15:32;3.10;;;2.80;;
4311;SDS011;2169;49.086;9.284;2023-07-22T04:17:58;7.20;;;1.63;;
4311;SDS011;2169;49.086;9.284;2023-07-22T04:20:25;1.90;;;1.67;;
4311;SDS011;2169;49.086;9.284;2023-07-22T04:22:52;5.70;;;1.90;;
4311;SDS011;2169;49.086;9.284;2023-07-22T04:25:18;1.73;;;1.63;;
4311;SDS011;2169;49.086;9.284;2023-07-22T04:27:45;1.23;;;1.23;;
4311;SDS011;2169;49.086;9.284;2023-07-22T04:30:12;2.43;;;2.07;;
4311;SDS011;2169;49.086;9.284;2023-07-22T04:32:46;2.77;;;2.40;;
4311;SDS011;2169;49.086;9.284;2023-07-22T04:35:13;1.80;;;1.70;;
4311;SDS011;2169;49.086;9.284;2023-07-22T04:37:42;3.93;;;3.53;;
4311;SDS011;2169;49.086;9.284;2023-07-22T04:40:09;4.63;;;1.87;;
4311;SDS011;2169;49.086;9.284;2023-07-22T04:42:39;7.87;;;2.33;;
4311;SDS011;2169;49.086;9.284;2023-07-22T04:45:06;9.80;;;2.33;;
4311;SDS011;2169;49.086;9.284;2023-07-22T04:47:34;8.10;;;2.10;;
4311;SDS011;2169;49.086;9.284;2023-07-22T04:50:03;2.83;;;1.90;;
4311;SDS011;2169;49.086;9.284;2023-07-22T04:52:31;2.97;;;1.37;;
4311;SDS011;2169;49.086;9.284;2023-07-22T04:54:58;2.30;;;1.47;;
4311;SDS011;2169;49.086;9.284;2023-07-22T04:57:24;4.20;;;2.37;;
4311;SDS011;2169;49.086;9.284;2023-07-22T04:59:51;8.23;;;1.50;;
4311;SDS011;2169;49.086;9.284;2023-07-22T05:02:18;3.53;;;2.30;;
4311;SDS011;2169;49.086;9.284;2023-07-22T05:04:45;1.57;;;1.47;;
4311;SDS011;2169;49.086;9.284;2023-07-22T05:07:13;2.20;;;1.93;;
4311;SDS011;2169;49.086;9.284;2023-07-22T05:09:40;1.77;;;1.67;;
4311;SDS011;2169;49.086;9.284;2023-07-22T05:12:07;2.10;;;1.87;;
4311;SDS011;2169;49.086;9.284;2023-07-22T05:14:34;2.30;;;2.10;;
4311;SDS011;2169;49.086;9.284;2023-07-22T05:17:01;3.50;;;2.03;;
4311;SDS011;2169;49.086;9.284;2023-07-22T05:19:27;1.13;;;0.93;;
4311;SDS011;2169;49.086;9.284;2023-07-22T05:21:54;4.30;;;1.63;;
4311;SDS011;2169;49.086;9.284;2023-07-22T05:24:22;9.97;;;2.73;;
4311;SDS011;2169;49.086;9.284;2023-07-22T05:26:49;2.80;;;2.57;;
4311;SDS011;2169;49.086;9.284;2023-07-22T05:29:15;1.83;;;1.60;;
4311;SDS011;2169;49.086;9.284;2023-07-22T05:31:42;1.73;;;1.63;;
4311;SDS011;2169;49.086;9.284;2023-07-22T05:34:09;2.40;;;2.20;;
4311;SDS011;2169;49.086;9.284;2023-07-22T05:36:36;1.87;;;1.77;;
4311;SDS011;2169;49.086;9.284;2023-07-22T05:39:03;3.60;;;2.40;;
4311;SDS011;2169;49.086;9.284;2023-07-22T05:41:31;9.33;;;3.10;;
4311;SDS011;2169;49.086;9.284;2023-07-22T05:43:59;4.03;;;2.83;;
4311;SDS011;2169;49.086;9.284;2023-07-22T05:46:26;2.37;;;2.17;;
4311;SDS011;2169;49.086;9.284;2023-07-22T05:48:52;2.90;;;2.10;;
4311;SDS011;2169;49.086;9.284;2023-07-22T05:51:19;7.57;;;2.27;;
4311;SDS011;2169;49.086;9.284;2023-07-22T05:53:47;4.50;;;2.30;;
4311;SDS011;2169;49.086;9.284;2023-07-22T05:56:14;1.73;;;1.63;;
4311;SDS011;2169;49.086;9.284;2023-07-22T05:58:42;1.67;;;1.53;;
4311;SDS011;2169;49.086;9.284;2023-07-22T06:01:09;2.30;;;2.07;;
4311;SDS011;2169;49.086;9.284;2023-07-22T06:03:36;11.93;;;2.53;;
4311;SDS011;2169;49.086;9.284;2023-07-22T06:06:03;2.57;;;2.00;;
4311;SDS011;2169;49.086;9.284;2023-07-22T06:08:30;3.00;;;1.60;;
4311;SDS011;2169;49.086;9.284;2023-07-22T06:10:57;2.27;;;2.07;;
4311;SDS011;2169;49.086;9.284;2023-07-22T06:13:23;2.13;;;2.03;;
4311;SDS011;2169;49.086;9.284;2023-07-22T06:15:51;3.70;;;2.10;;
4311;SDS011;2169;49.086;9.284;2023-07-22T06:18:18;3.33;;;1.53;;
4311;SDS011;2169;49.086;9.284;2023-07-22T06:20:45;1.90;;;1.70;;
4311;SDS011;2169;49.086;9.284;2023-07-22T06:23:12;2.87;;;2.43;;
4311;SDS011;2169;49.086;9.284;2023-07-22T06:25:40;4.50;;;2.13;;
4311;SDS011;2169;49.086;9.284;2023-07-22T06:28:06;3.43;;;1.37;;
4311;SDS011;2169;49.086;9.284;2023-07-22T06:30:34;2.37;;;2.17;;
4311;SDS011;2169;49.086;9.284;2023-07-22T06:33:02;3.60;;;1.70;;
4311;SDS011;2169;49.086;9.284;2023-07-22T06:35:28;8.10;;;1.50;;
4311;SDS011;2169;49.086;9.284;2023-07-22T06:37:55;3.90;;;1.87;;
4311;SDS011;2169;49.086;9.284;2023-07-22T06:40:22;7.23;;;1.57;;
4311;SDS011;2169;49.086;9.284;2023-07-22T06:42:49;4.33;;;1.57;;
4311;SDS011;2169;49.086;9.284;2023-07-22T06:45:16;1.77;;;1.67;;
4311;SDS011;2169;49.086;9.284;2023-07-22T06:47:43;1.50;;;1.40;;
4311;SDS011;2169;49.086;9.284;2023-07-22T06:50:11;2.50;;;1.97;;
4311;SDS011;2169;49.086;9.284;2023-07-22T06:52:38;2.20;;;2.10;;
4311;SDS011;2169;49.086;9.284;2023-07-22T06:55:05;4.00;;;2.53;;
4311;SDS011;2169;49.086;9.284;2023-07-22T06:57:32;5.03;;;1.43;;
4311;SDS011;2169;49.086;9.284;2023-07-22T06:59:59;4.63;;;1.97;;
4311;SDS011;2169;49.086;9.284;2023-07-22T07:02:26;1.43;;;1.33;;
4311;SDS011;2169;49.086;9.284;2023-07-22T07:04:53;1.50;;;1.40;;
4311;SDS011;2169;49.086;9.284;2023-07-22T07:07:21;2.17;;;2.03;;
4311;SDS011;2169;49.086;9.284;2023-07-22T07:09:48;2.53;;;1.07;;
4311;SDS011;2169;49.086;9.284;2023-07-22T07:12:15;5.10;;;1.53;;
4311;SDS011;2169;49.086;9.284;2023-07-22T07:14:42;3.23;;;1.83;;
4311;SDS011;2169;49.086;9.284;2023-07-22T07:17:09;2.73;;;1.93;;
4311;SDS011;2169;49.086;9.284;2023-07-22T07:19:36;2.73;;;1.70;;
4311;SDS011;2169;49.086;9.284;2023-07-22T07:22:03;2.20;;;1.27;;
4311;SDS011;2169;49.086;9.284;2023-07-22T07:24:31;1.90;;;1.70;;
4311;SDS011;2169;49.086;9.284;2023-07-22T07:26:57;2.87;;;1.67;;
4311;SDS011;2169;49.086;9.284;2023-07-22T07:29:24;1.33;;;1.10;;
4311;SDS011;2169;49.086;9.284;2023-07-22T07:31:51;12.30;;;2.50;;
4311;SDS011;2169;49.086;9.284;2023-07-22T07:34:18;2.43;;;1.40;;
4311;SDS011;2169;49.086;9.284;2023-07-22T07:36:44;1.80;;;1.57;;
4311;SDS011;2169;49.086;9.284;2023-07-22T07:39:11;1.37;;;1.27;;
4311;SDS011;2169;49.086;9.284;2023-07-22T07:41:39;2.50;;;1.00;;
4311;SDS011;2169;49.086;9.284;2023-07-22T07:44:06;1.20;;;1.10;;
4311;SDS011;2169;49.086;9.284;2023-07-22T07:46:33;1.17;;;0.90;;
4311;SDS011;2169;49.086;9.284;2023-07-22T07:49:00;3.23;;;1.90;;
4311;SDS011;2169;49.086;9.284;2023-07-22T07:51:28;2.00;;;1.30;;
4311;SDS011;2169;49.086;9.284;2023-07-22T07:53:56;1.37;;;1.27;;
4311;SDS011;2169;49.086;9.284;2023-07-22T07:56:25;1.53;;;1.43;;
4311;SDS011;2169;49.086;9.284;2023-07-22T07:58:53;2.23;;;1.23;;
4311;SDS011;2169;49.086;9.284;2023-07-22T08:01:20;1.17;;;1.00;;
4311;SDS011;2169;49.086;9.284;2023-07-22T08:03:47;3.80;;;1.37;;
4311;SDS011;2169;49.086;9.284;2023-07-22T08:06:14;1.13;;;1.07;;
4311;SDS011;2169;49.086;9.284;2023-07-22T08:08:41;3.97;;;1.80;;
4311;SDS011;2169;49.086;9.284;2023-07-22T08:11:10;2.40;;;1.30;;
4311;SDS011;2169;49.086;9.284;2023-07-22T08:13:39;3.40;;;0.93;;
4311;SDS011;2169;49.086;9.284;2023-07-22T08:16:08;1.33;;;1.23;;
4311;SDS011;2169;49.086;9.284;2023-07-22T08:18:36;1.53;;;1.03;;
4311;SDS011;2169;49.086;9.284;2023-07-22T08:21:04;1.57;;;1.47;;
4311;SDS011;2169;49.086;9.284;2023-07-22T08:23:32;3.10;;;1.60;;
4311;SDS011;2169;49.086;9.284;2023-07-22T08:26:00;0.80;;;0.80;;
4311;SDS011;2169;49.086;9.284;2023-07-22T08:28:26;2.30;;;1.17;;
4311;SDS011;2169;49.086;9.284;2023-07-22T08:30:54;2.30;;;0.90;;
4311;SDS011;2169;49.086;9.284;2023-07-22T08:33:23;1.40;;;1.07;;
4311;SDS011;2169;49.086;9.284;2023-07-22T08:35:50;3.33;;;0.83;;
4311;SDS011;2169;49.086;9.284;2023-07-22T08:38:17;2.33;;;1.97;;
4311;SDS011;2169;49.086;9.284;2023-07-22T08:40:44;2.03;;;1.27;;
4311;SDS011;2169;49.086;9.284;2023-07-22T08:43:14;1.27;;;0.80;;
4311;SDS011;2169;49.086;9.284;2023-07-22T08:45:43;1.70;;;1.27;;
4311;SDS011;2169;49.086;9.284;2023-07-22T08:48:11;2.67;;;2.47;;
4311;SDS011;2169;49.086;9.284;2023-07-22T08:50:43;7.13;;;1.73;;
4311;SDS011;2169;49.086;9.284;2023-07-22T08:53:11;4.30;;;2.60;;
4311;SDS011;2169;49.086;9.284;2023-07-22T08:55:39;2.40;;;1.40;;
4311;SDS011;2169;49.086;9.284;2023-07-22T08:58:07;1.70;;;1.13;;
4311;SDS011;2169;49.086;9.284;2023-07-22T09:00:35;0.90;;;0.90;;
4311;SDS011;2169;49.086;9.284;2023-07-22T09:03:02;1.10;;;1.00;;
4311;SDS011;2169;49.086;9.284;2023-07-22T09:05:30;9.00;;;1.30;;
4311;SDS011;2169;49.086;9.284;2023-07-22T09:08:01;2.47;;;0.80;;
4311;SDS011;2169;49.086;9.284;2023-07-22T09:10:29;1.20;;;1.10;;
4311;SDS011;2169;49.086;9.284;2023-07-22T09:12:56;8.33;;;0.80;;
4311;SDS011;2169;49.086;9.284;2023-07-22T09:15:24;4.50;;;1.63;;
4311;SDS011;2169;49.086;9.284;2023-07-22T09:17:52;0.77;;;0.67;;
4311;SDS011;2169;49.086;9.284;2023-07-22T09:20:19;1.67;;;1.10;;
4311;SDS011;2169;49.086;9.284;2023-07-22T09:22:48;1.23;;;0.70;;
4311;SDS011;2169;49.086;9.284;2023-07-22T09:25:18;2.23;;;1.00;;
4311;SDS011;2169;49.086;9.284;2023-07-22T09:27:46;2.53;;;1.20;;
4311;SDS011;2169;49.086;9.284;2023-07-22T09:30:20;0.80;;;0.80;;
4311;SDS011;2169;49.086;9.284;2023-07-22T09:32:48;4.33;;;1.10;;
4311;SDS011;2169;49.086;9.284;2023-07-22T09:35:15;0.80;;;0.80;;
4311;SDS011;2169;49.086;9.284;2023-07-22T09:37:44;0.70;;;0.70;;
4311;SDS011;2169;49.086;9.284;2023-07-22T09:40:14;1.80;;;1.70;;
4311;SDS011;2169;49.086;9.284;2023-07-22T09:42:45;0.77;;;0.77;;
4311;SDS011;2169;49.086;9.284;2023-07-22T09:45:16;1.00;;;0.80;;
4311;SDS011;2169;49.086;9.284;2023-07-22T09:47:43;1.03;;;1.03;;
4311;SDS011;2169;49.086;9.284;2023-07-22T09:50:11;0.87;;;0.80;;
4311;SDS011;2169;49.086;9.284;2023-07-22T09:52:46;0.80;;;0.80;;
4311;SDS011;2169;49.086;9.284;2023-07-22T09:55:14;1.00;;;0.70;;
4311;SDS011;2169;49.086;9.284;2023-07-22T09:57:44;0.70;;;0.70;;
4311;SDS011;2169;49.086;9.284;2023-07-22T10:00:13;2.10;;;1.27;;
4311;SDS011;2169;49.086;9.284;2023-07-22T10:02:41;1.20;;;0.97;;
4311;SDS011;2169;49.086;9.284;2023-07-22T10:05:11;0.60;;;0.60;;
4311;SDS011;2169;49.086;9.284;2023-07-22T10:07:42;0.80;;;0.70;;
4311;SDS011;2169;49.086;9.284;2023-07-22T10:10:11;1.03;;;0.70;;
4311;SDS011;2169;49.086;9.284;2023-07-22T10:12:39;1.10;;;0.90;;
4311;SDS011;2169;49.086;9.284;2023-07-22T10:15:08;3.93;;;1.10;;
4311;SDS011;2169;49.086;9.284;2023-07-22T10:17:36;0.90;;;0.90;;
4311;SDS011;2169;49.086;9.284;2023-07-22T10:20:04;0.67;;;0.67;;
4311;SDS011;2169;49.086;9.284;2023-07-22T10:22:34;3.10;;;0.80;;
4311;SDS011;2169;49.086;9.284;2023-07-22T10:25:02;1.60;;;0.80;;
4311;SDS011;2169;49.086;9.284;2023-07-22T10:27:31;1.13;;;1.00;;
4311;SDS011;2169;49.086;9.284;2023-07-22T10:29:58;4.83;;;2.03;;
4311;SDS011;2169;49.086;9.284;2023-07-22T10:32:32;1.37;;;1.17;;
4311;SDS011;2169;49.086;9.284;2023-07-22T10:35:00;1.00;;;0.90;;
4311;SDS011;2169;49.086;9.284;2023-07-22T10:37:29;1.67;;;1.40;;
4311;SDS011;2169;49.086;9.284;2023-07-22T10:39:58;1.60;;;0.77;;
4311;SDS011;2169;49.086;9.284;2023-07-22T10:42:26;1.27;;;0.70;;
4311;SDS011;2169;49.086;9.284;2023-07-22T10:44:52;0.90;;;0.80;;
4311;SDS011;2169;49.086;9.284;2023-07-22T10:47:32;1.10;;;1.00;;
4311;SDS011;2169;49.086;9.284;2023-07-22T10:50:07;1.40;;;0.80;;
4311;SDS011;2169;49.086;9.284;2023-07-22T10:52:38;1.10;;;0.90;;
4311;SDS011;2169;49.086;9.284;2023-07-22T10:55:16;0.80;;;0.80;;
4311;SDS011;2169;49.086;9.284;2023-07-22T10:57:49;0.53;;;0.50;;
4311;SDS011;2169;49.086;9.284;2023-07-22T11:00:18;2.53;;;0.50;;
4311;SDS011;2169;49.086;9.284;2023-07-22T11:02:47;2.60;;;1.40;;
4311;SDS011;2169;49.086;9.284;2023-07-22T11:08:14;0.73;;;0.73;;
4311;SDS011;2169;49.086;9.284;2023-07-22T11:10:51;0.70;;;0.70;;
4311;SDS011;2169;49.086;9.284;2023-07-22T11:13:21;1.40;;;1.30;;
4311;SDS011;2169;49.086;9.284;2023-07-22T11:15:53;0.90;;;0.90;;
4311;SDS011;2169;49.086;9.284;2023-07-22T11:18:36;0.77;;;0.77;;
4311;SDS011;2169;49.086;9.284;2023-07-22T11:21:07;1.00;;;0.80;;
4311;SDS011;2169;49.086;9.284;2023-07-22T11:23:35;1.47;;;0.50;;
4311;SDS011;2169;49.086;9.284;2023-07-22T11:26:02;2.93;;;1.20;;
4311;SDS011;2169;49.086;9.284;2023-07-22T11:28:29;1.77;;;0.60;;
4311;SDS011;2169;49.086;9.284;2023-07-22T11:30:56;0.93;;;0.60;;
4311;SDS011;2169;49.086;9.284;2023-07-22T11:33:24;1.70;;;0.73;;
4311;SDS011;2169;49.086;9.284;2023-07-22T11:35:52;0.47;;;0.47;;
4311;SDS011;2169;49.086;9.284;2023-07-22T11:38:18;0.77;;;0.53;;
4311;SDS011;2169;49.086;9.284;2023-07-22T11:40:45;1.80;;;0.80;;
4311;SDS011;2169;49.086;9.284;2023-07-22T11:43:12;1.20;;;0.60;;
4311;SDS011;2169;49.086;9.284;2023-07-22T11:45:40;1.00;;;0.80;;
4311;SDS011;2169;49.086;9.284;2023-07-22T11:48:09;0.60;;;0.60;;
4311;SDS011;2169;49.086;9.284;2023-07-22T11:50:36;0.70;;;0.60;;
4311;SDS011;2169;49.086;9.284;2023-07-22T11:53:04;1.37;;;0.70;;
4311;SDS011;2169;49.086;9.284;2023-07-22T11:55:33;1.60;;;1.40;;
4311;SDS011;2169;49.086;9.284;2023-07-22T11:58:01;0.83;;;0.50;;
4311;SDS011;2169;49.086;9.284;2023-07-22T12:00:28;0.80;;;0.77;;
4311;SDS011;2169;49.086;9.284;2023-07-22T12:02:55;2.03;;;1.00;;
4311;SDS011;2169;49.086;9.284;2023-07-22T12:05:24;0.80;;;0.70;;
4311;SDS011;2169;49.086;9.284;2023-07-22T12:07:50;2.00;;;1.33;;
4311;SDS011;2169;49.086;9.284;2023-07-22T12:10:18;1.63;;;0.80;;
4311;SDS011;2169;49.086;9.284;2023-07-22T12:12:46;2.30;;;1.10;;
4311;SDS011;2169;49.086;9.284;2023-07-22T12:15:14;2.37;;;0.73;;
4311;SDS011;2169;49.086;9.284;2023-07-22T12:17:45;2.80;;;0.80;;
4311;SDS011;2169;49.086;9.284;2023-07-22T12:20:13;1.60;;;0.83;;
4311;SDS011;2169;49.086;9.284;2023-07-22T12:22:40;3.27;;;1.00;;
4311;SDS011;2169;49.086;9.284;2023-07-22T12:25:07;0.60;;;0.60;;
4311;SDS011;2169;49.086;9.284;2023-07-22T12:27:36;0.60;;;0.60;;
4311;SDS011;2169;49.086;9.284;2023-07-22T12:30:03;1.53;;;0.80;;
4311;SDS011;2169;49.086;9.284;2023-07-22T12:32:32;3.33;;;0.97;;
4311;SDS011;2169;49.086;9.284;2023-07-22T12:34:58;0.80;;;0.80;;
4311;SDS011;2169;49.086;9.284;2023-07-22T12:37:25;0.80;;;0.77;;
4311;SDS011;2169;49.086;9.284;2023-07-22T12:39:53;0.73;;;0.73;;
4311;SDS011;2169;49.086;9.284;2023-07-22T12:42:20;0.90;;;0.70;;
4311;SDS011;2169;49.086;9.284;2023-07-22T12:44:48;0.80;;;0.80;;
4311;SDS011;2169;49.086;9.284;2023-07-22T12:47:14;1.37;;;0.73;;
4311;SDS011;2169;49.086;9.284;2023-07-22T12:49:41;0.87;;;0.80;;
4311;SDS011;2169;49.086;9.284;2023-07-22T12:52:08;1.50;;;0.80;;
4311;SDS011;2169;49.086;9.284;2023-07-22T12:54:35;1.10;;;0.80;;
4311;SDS011;2169;49.086;9.284;2023-07-22T12:57:02;0.70;;;0.60;;
4311;SDS011;2169;49.086;9.284;2023-07-22T12:59:29;1.50;;;1.00;;
4311;SDS011;2169;49.086;9.284;2023-07-22T13:01:58;1.30;;;1.03;;
4311;SDS011;2169;49.086;9.284;2023-07-22T13:04:24;3.70;;;0.90;;
4311;SDS011;2169;49.086;9.284;2023-07-22T13:06:51;0.63;;;0.63;;
4311;SDS011;2169;49.086;9.284;2023-07-22T13:09:18;1.13;;;0.90;;
4311;SDS011;2169;49.086;9.284;2023-07-22T13:11:45;1.03;;;0.93;;
4311;SDS011;2169;49.086;9.284;2023-07-22T13:14:12;0.80;;;0.80;;
4311;SDS011;2169;49.086;9.284;2023-07-22T13:16:40;0.83;;;0.83;;
4311;SDS011;2169;49.086;9.284;2023-07-22T13:19:08;1.37;;;0.97;;
4311;SDS011;2169;49.086;9.284;2023-07-22T13:21:34;1.13;;;0.87;;
4311;SDS011;2169;49.086;9.284;2023-07-22T13:24:01;0.70;;;0.70;;
4311;SDS011;2169;49.086;9.284;2023-07-22T13:26:28;0.90;;;0.90;;
4311;SDS011;2169;49.086;9.284;2023-07-22T13:28:55;1.40;;;0.80;;
4311;SDS011;2169;49.086;9.284;2023-07-22T13:31:22;0.70;;;0.70;;
4311;SDS011;2169;49.086;9.284;2023-07-22T13:33:48;8.80;;;1.17;;
4311;SDS011;2169;49.086;9.284;2023-07-22T13:36:16;0.70;;;0.70;;
4311;SDS011;2169;49.086;9.284;2023-07-22T13:38:43;2.03;;;1.00;;
4311;SDS011;2169;49.086;9.284;2023-07-22T13:41:10;0.90;;;0.90;;
4311;SDS011;2169;49.086;9.284;2023-07-22T13:43:37;1.63;;;0.87;;
4311;SDS011;2169;49.086;9.284;2023-07-22T13:46:03;1.10;;;0.70;;
4311;SDS011;2169;49.086;9.284;2023-07-22T13:48:30;1.47;;;1.23;;
4311;SDS011;2169;49.086;9.284;2023-07-22T13:50:57;1.67;;;1.00;;
4311;SDS011;2169;49.086;9.284;2023-07-22T13:53:25;1.07;;;0.87;;
4311;SDS011;2169;49.086;9.284;2023-07-22T13:55:52;2.03;;;1.27;;
4311;SDS011;2169;49.086;9.284;2023-07-22T13:58:18;0.70;;;0.70;;
4311;SDS011;2169;49.086;9.284;2023-07-22T14:00:45;1.40;;;0.70;;
4311;SDS011;2169;49.086;9.284;2023-07-22T14:03:13;2.97;;;1.13;;
4311;SDS011;2169;49.086;9.284;2023-07-22T14:05:40;3.13;;;2.17;;
4311;SDS011;2169;49.086;9.284;2023-07-22T14:08:07;3.20;;;1.63;;
4311;SDS011;2169;49.086;9.284;2023-07-22T14:10:35;2.00;;;1.40;;
4311;SDS011;2169;49.086;9.284;2023-07-22T14:13:02;3.17;;;1.10;;
4311;SDS011;2169;49.086;9.284;2023-07-22T14:15:28;1.57;;;1.13;;
4311;SDS011;2169;49.086;9.284;2023-07-22T14:17:56;3.63;;;1.70;;
4311;SDS011;2169;49.086;9.284;2023-07-22T14:20:23;3.37;;;0.70;;
4311;SDS011;2169;49.086;9.284;2023-07-22T14:22:50;1.57;;;1.00;;
4311;SDS011;2169;49.086;9.284;2023-07-22T14:25:16;1.77;;;0.93;;
4311;SDS011;2169;49.086;9.284;2023-07-22T14:27:45;0.70;;;0.70;;
4311;SDS011;2169;49.086;9.284;2023-07-22T14:30:12;1.20;;;0.90;;
4311;SDS011;2169;49.086;9.284;2023-07-22T14:32:39;1.67;;;0.87;;
4311;SDS011;2169;49.086;9.284;2023-07-22T14:35:06;2.60;;;1.10;;
4311;SDS011;2169;49.086;9.284;2023-07-22T14:37:35;1.00;;;0.90;;
4311;SDS011;2169;49.086;9.284;2023-07-22T14:40:03;1.53;;;1.43;;
4311;SDS011;2169;49.086;9.284;2023-07-22T14:42:30;1.00;;;1.00;;
4311;SDS011;2169;49.086;9.284;2023-07-22T14:44:59;2.70;;;2.20;;
4311;SDS011;2169;49.086;9.284;2023-07-22T14:47:25;2.63;;;0.90;;
4311;SDS011;2169;49.086;9.284;2023-07-22T14:49:52;2.00;;;1.30;;
4311;SDS011;2169;49.086;9.284;2023-07-22T14:52:19;1.00;;;0.80;;
4311;SDS011;2169;49.086;9.284;2023-07-22T14:54:46;1.13;;;1.03;;
4311;SDS011;2169;49.086;9.284;2023-07-22T14:57:12;1.67;;;1.00;;
4311;SDS011;2169;49.086;9.284;2023-07-22T14:59:39;1.67;;;1.00;;
4311;SDS011;2169;49.086;9.284;2023-07-22T15:02:07;2.70;;;1.80;;
4311;SDS011;2169;49.086;9.284;2023-07-22T15:04:34;2.10;;;1.20;;
4311;SDS011;2169;49.086;9.284;2023-07-22T15:07:01;0.80;;;0.70;;
4311;SDS011;2169;49.086;9.284;2023-07-22T15:09:28;2.07;;;0.80;;
4311;SDS011;2169;49.086;9.284;2023-07-22T15:11:55;1.27;;;1.17;;
4311;SDS011;2169;49.086;9.284;2023-07-22T15:14:22;1.67;;;0.93;;
4311;SDS011;2169;49.086;9.284;2023-07-22T15:16:49;1.77;;;1.07;;
4311;SDS011;2169;49.086;9.284;2023-07-22T15:19:17;1.97;;;1.03;;